Terminal Aerodrome Forecast
Issued by NWS Wilmington, OH

Current Version | Previous Version | Graphics & Text | Print | Product List | Glossary On
Versions: 1 2 3 4 5 6 7 8 9 10 11 12 13 14 15
000
FTUS41 KILN 220500
TAFILN
TAF
KILN 220528Z 2206/2306 27006KT P6SM OVC060
     FM221100 27009KT P6SM VCSH BKN025 OVC050
     FM221400 31014KT P6SM SCT030 BKN050
     FM221600 32016G24KT P6SM FEW040
     FM230000 33010KT P6SM SKC=

USA.gov is the U.S. government's official web portal to all federal, state and local government web resources and services.